createdAt,value
2018-12-01T00:00:20.570Z,94.90
2018-12-01T00:02:49.000Z,94.90
2018-12-01T00:05:17.447Z,94.90
2018-12-01T00:10:14.030Z,94.90
2018-12-01T00:12:42.419Z,94.90
2018-12-01T00:15:12.369Z,94.90
2018-12-01T00:17:40.851Z,95.00
2018-12-01T00:20:11.578Z,94.90
2018-12-01T00:22:39.955Z,95.00
2018-12-01T00:25:09.055Z,94.90
2018-12-01T00:27:37.457Z,94.90
2018-12-01T00:30:12.867Z,94.90
2018-12-01T00:32:41.714Z,95.00
2018-12-01T00:35:11.401Z,94.90
2018-12-01T00:37:39.798Z,94.80
2018-12-01T00:40:10.825Z,94.90
2018-12-01T00:42:39.638Z,94.90
2018-12-01T00:45:10.467Z,95.00
2018-12-01T00:47:38.841Z,94.90
2018-12-01T00:50:10.669Z,94.70
2018-12-01T00:52:39.189Z,94.80
2018-12-01T00:55:11.337Z,94.90
2018-12-01T00:57:39.739Z,94.80
2018-12-01T01:00:19.016Z,94.80
2018-12-01T01:02:52.753Z,94.70
2018-12-01T01:05:22.102Z,94.80
2018-12-01T01:07:50.547Z,94.80
2018-12-01T01:10:19.794Z,94.80
2018-12-01T01:12:48.210Z,94.90
2018-12-01T01:15:16.631Z,94.90
2018-12-01T01:17:45.092Z,94.90
2018-12-01T01:20:14.690Z,94.90
2018-12-01T01:22:43.239Z,95.00
2018-12-01T01:25:12.411Z,94.90
2018-12-01T01:27:40.854Z,94.90
2018-12-01T01:33:23.064Z,94.90
2018-12-01T01:38:19.660Z,94.90
2018-12-01T01:40:52.292Z,94.80
2018-12-01T01:43:20.686Z,94.70
2018-12-01T01:45:49.070Z,94.80
2018-12-01T01:48:17.515Z,94.80
2018-12-01T01:50:45.891Z,94.80
2018-12-01T01:53:14.325Z,94.80
2018-12-01T01:55:42.802Z,94.60
2018-12-01T01:58:11.265Z,94.70
2018-12-01T02:00:39.713Z,94.70
2018-12-01T02:03:08.121Z,94.70
2018-12-01T02:05:36.533Z,94.90
2018-12-01T02:08:05.202Z,94.90
2018-12-01T02:10:33.638Z,94.90
2018-12-01T02:13:02.056Z,94.90
2018-12-01T02:15:30.442Z,94.90
2018-12-01T02:17:58.842Z,94.90
2018-12-01T02:20:27.240Z,95.00
2018-12-01T02:22:55.675Z,94.90
2018-12-01T02:25:24.094Z,95.00
2018-12-01T02:27:52.547Z,95.00
2018-12-01T02:32:49.645Z,95.20
2018-12-01T02:35:21.241Z,95.00
2018-12-01T02:40:17.727Z,95.00
2018-12-01T02:42:46.126Z,94.90
2018-12-01T02:47:48.318Z,94.80
2018-12-01T02:50:20.930Z,94.90
2018-12-01T02:52:49.331Z,95.00
2018-12-01T02:55:17.722Z,95.00
2018-12-01T02:57:46.144Z,95.00
2018-12-01T03:00:14.539Z,95.10
2018-12-01T03:02:42.940Z,95.10
2018-12-01T03:07:40.145Z,95.00
2018-12-01T03:10:10.057Z,95.10
2018-12-01T03:12:38.518Z,95.10
2018-12-01T03:15:10.520Z,95.20
2018-12-01T03:17:38.970Z,95.20
2018-12-01T03:20:11.051Z,95.10
2018-12-01T03:22:39.490Z,95.10
2018-12-01T03:25:09.476Z,95.10
2018-12-01T03:27:38.115Z,95.10
2018-12-01T03:30:10.611Z,95.10
2018-12-01T03:32:39.216Z,95.10
2018-12-01T03:35:13.455Z,95.10
2018-12-01T03:37:43.701Z,95.10
2018-12-01T03:40:12.959Z,95.10
2018-12-01T03:42:41.362Z,95.10
2018-12-01T03:45:13.041Z,95.00
2018-12-01T03:47:41.483Z,95.10
2018-12-01T03:50:12.004Z,95.00
2018-12-01T03:52:40.706Z,95.00
2018-12-01T03:55:20.478Z,94.90
2018-12-01T04:01:09.674Z,94.90
2018-12-01T04:03:38.078Z,94.90
2018-12-01T04:06:06.490Z,94.80
2018-12-01T04:11:03.042Z,94.60
2018-12-01T04:13:31.418Z,94.70
2018-12-01T04:15:59.801Z,94.70
2018-12-01T04:18:28.175Z,94.80
2018-12-01T04:20:56.559Z,95.00
2018-12-01T04:23:24.938Z,94.90
2018-12-01T04:25:53.324Z,94.90
2018-12-01T04:28:21.747Z,94.90
2018-12-01T04:30:50.139Z,94.80
2018-12-01T04:33:18.561Z,94.80
2018-12-01T04:35:46.966Z,95.00
2018-12-01T04:38:15.358Z,95.20
2018-12-01T04:40:43.754Z,95.30
2018-12-01T04:43:12.130Z,95.30
2018-12-01T04:45:40.513Z,95.30
2018-12-01T04:50:36.998Z,95.30
2018-12-01T04:53:06.446Z,95.10
2018-12-01T04:55:34.858Z,95.30
2018-12-01T04:58:03.255Z,95.30
2018-12-01T05:00:31.710Z,95.10
2018-12-01T05:05:28.203Z,94.90
2018-12-01T05:07:56.582Z,94.90
2018-12-01T05:12:53.074Z,95.00
2018-12-01T05:15:21.478Z,95.10
2018-12-01T05:17:49.862Z,94.90
2018-12-01T05:20:19.457Z,95.00
2018-12-01T05:22:48.322Z,95.00
2018-12-01T05:25:16.732Z,94.90
2018-12-01T05:27:45.135Z,94.80
2018-12-01T05:30:13.543Z,94.80
2018-12-01T05:32:41.923Z,94.80
2018-12-01T05:35:14.794Z,94.80
2018-12-01T05:37:43.206Z,95.00
2018-12-01T05:40:13.138Z,95.10
2018-12-01T05:42:41.529Z,95.10
2018-12-01T05:45:12.363Z,95.10
2018-12-01T05:47:40.908Z,95.10
2018-12-01T05:52:37.902Z,95.10
2018-12-01T05:55:09.326Z,95.00
2018-12-01T05:57:37.734Z,94.90
2018-12-01T06:00:09.658Z,94.90
2018-12-01T06:02:38.029Z,95.00
2018-12-01T06:05:07.082Z,95.00
2018-12-01T06:07:35.512Z,94.90
2018-12-01T06:10:04.483Z,95.00
2018-12-01T06:12:32.899Z,95.00
2018-12-01T06:15:01.288Z,94.90
2018-12-01T06:17:29.726Z,95.00
2018-12-01T06:19:58.175Z,95.00
2018-12-01T06:22:26.607Z,95.10
2018-12-01T06:24:54.978Z,95.10
2018-12-01T06:29:51.502Z,95.00
2018-12-01T06:32:19.903Z,95.10
2018-12-01T06:34:48.271Z,95.00
2018-12-01T06:37:16.718Z,94.90
2018-12-01T06:39:45.102Z,95.00
2018-12-01T06:42:13.486Z,95.00
2018-12-01T06:44:41.854Z,95.00
2018-12-01T06:47:10.276Z,95.00
2018-12-01T06:49:38.649Z,95.00
2018-12-01T06:52:07.059Z,95.00
2018-12-01T06:54:35.440Z,95.00
2018-12-01T06:57:03.849Z,95.00
2018-12-01T06:59:32.243Z,95.00
2018-12-01T07:04:28.780Z,95.10
2018-12-01T07:06:57.207Z,95.10
2018-12-01T07:11:53.708Z,95.20
2018-12-01T07:14:22.090Z,95.00
2018-12-01T07:16:50.551Z,95.00
2018-12-01T07:19:19.277Z,95.00
2018-12-01T07:21:47.673Z,95.00
2018-12-01T07:24:16.050Z,95.00
2018-12-01T07:26:44.438Z,95.10
2018-12-01T07:29:12.834Z,95.00
2018-12-01T07:31:41.238Z,95.00
2018-12-01T07:34:09.628Z,95.00
2018-12-01T07:36:38.019Z,94.70
2018-12-01T07:39:08.234Z,94.70
2018-12-01T07:41:36.678Z,94.70
2018-12-01T07:44:05.516Z,94.60
2018-12-01T07:46:33.947Z,94.60
2018-12-01T07:49:02.315Z,94.70
2018-12-01T07:51:30.695Z,94.80
2018-12-01T07:53:59.113Z,95.00
2018-12-01T07:56:27.491Z,94.70
2018-12-01T07:58:55.914Z,94.80
2018-12-01T08:03:52.395Z,94.60
2018-12-01T08:06:20.763Z,94.50
2018-12-01T08:08:49.307Z,94.30
2018-12-01T08:11:17.710Z,94.40
2018-12-01T08:16:14.259Z,94.00
2018-12-01T08:21:10.748Z,93.90
2018-12-01T08:23:39.155Z,93.60
2018-12-01T08:26:07.534Z,93.10
2018-12-01T08:28:35.930Z,93.10
2018-12-01T08:31:04.365Z,93.10
2018-12-01T08:33:32.783Z,92.90
2018-12-01T08:36:01.245Z,92.70
2018-12-01T08:38:29.623Z,92.40
2018-12-01T08:40:58.003Z,92.30
2018-12-01T08:43:26.419Z,91.70
2018-12-01T08:45:54.813Z,91.60
2018-12-01T08:50:55.550Z,90.50
2018-12-01T08:53:24.124Z,90.30
2018-12-01T08:55:52.543Z,90.30
2018-12-01T08:58:20.962Z,89.60
2018-12-01T09:00:49.346Z,89.60
2018-12-01T09:03:22.275Z,89.10
2018-12-01T09:05:51.108Z,89.60
2018-12-01T09:08:19.661Z,90.10
2018-12-01T09:10:48.054Z,90.20
2018-12-01T09:13:16.440Z,90.10
2018-12-01T09:15:44.821Z,89.70
2018-12-01T09:20:41.355Z,90.10
2018-12-01T09:23:09.760Z,90.00
2018-12-01T09:25:38.142Z,90.00
2018-12-01T09:28:07.820Z,90.10
2018-12-01T09:30:37.972Z,90.20
2018-12-01T09:33:06.601Z,90.30
2018-12-01T09:35:35.015Z,90.50
2018-12-01T09:38:03.428Z,90.80
2018-12-01T09:40:32.110Z,90.70
2018-12-01T09:43:00.503Z,90.60
2018-12-01T09:45:28.917Z,90.40
2018-12-01T09:47:57.320Z,90.60
2018-12-01T09:57:53.573Z,90.50
2018-12-01T10:00:25.123Z,89.60
2018-12-01T10:02:53.570Z,88.40
2018-12-01T10:05:22.497Z,87.70
2018-12-01T10:07:50.994Z,88.00
2018-12-01T10:15:19.350Z,87.70
2018-12-01T10:17:48.060Z,86.30
2018-12-01T10:20:19.077Z,86.70
2018-12-01T10:22:47.472Z,86.10
2018-12-01T10:25:17.105Z,85.80
2018-12-01T10:27:46.030Z,85.10
2018-12-01T10:30:20.460Z,84.20
2018-12-01T10:32:49.542Z,83.30
2018-12-01T10:35:23.011Z,83.50
2018-12-01T10:37:56.690Z,83.70
2018-12-01T10:40:25.134Z,81.80
2018-12-01T10:42:53.582Z,81.00
2018-12-01T10:45:22.512Z,80.00
2018-12-01T10:47:50.949Z,80.90
2018-12-01T10:52:49.034Z,81.90
2018-12-01T10:55:31.348Z,83.50
2018-12-01T10:58:01.005Z,83.50
2018-12-01T11:00:34.746Z,83.70
2018-12-01T11:03:11.228Z,83.50
2018-12-01T11:05:39.715Z,83.80
2018-12-01T11:08:09.161Z,84.20
2018-12-01T11:10:37.590Z,84.50
2018-12-01T11:13:06.094Z,84.40
2018-12-01T11:15:34.567Z,84.50
2018-12-01T11:18:03.003Z,84.40
2018-12-01T11:20:31.440Z,84.00
2018-12-01T11:22:59.866Z,84.30
2018-12-01T11:27:56.449Z,83.20
2018-12-01T11:32:52.959Z,84.10
2018-12-01T11:35:21.401Z,84.70
2018-12-01T11:37:50.141Z,85.30
2018-12-01T11:40:19.204Z,85.70
2018-12-01T11:42:48.102Z,86.10
2018-12-01T11:45:17.738Z,86.30
2018-12-01T11:47:46.405Z,86.50
2018-12-01T11:50:18.869Z,86.50
2018-12-01T11:52:48.406Z,86.20
2018-12-01T11:55:21.676Z,85.40
2018-12-01T12:00:24.985Z,85.70
2018-12-01T12:02:53.509Z,86.10
2018-12-01T12:05:21.930Z,85.90
2018-12-01T12:08:01.662Z,86.10
2018-12-01T12:10:30.213Z,86.50
2018-12-01T12:12:58.638Z,86.90
2018-12-01T12:15:27.571Z,86.30
2018-12-01T12:18:00.126Z,86.20
2018-12-01T12:20:29.156Z,86.20
2018-12-01T12:22:57.657Z,85.90
2018-12-01T12:25:26.284Z,85.80
2018-12-01T12:27:54.708Z,85.60
2018-12-01T12:32:51.419Z,85.20
2018-12-01T12:35:19.923Z,85.50
2018-12-01T12:37:48.503Z,85.20
2018-12-01T12:40:19.749Z,84.60
2018-12-01T12:45:16.394Z,85.60
2018-12-01T12:47:44.778Z,85.50
2018-12-01T12:50:15.233Z,85.50
2018-12-01T12:52:44.543Z,85.70
2018-12-01T12:55:15.113Z,85.70
2018-12-01T12:57:43.535Z,85.50
2018-12-01T13:00:13.958Z,84.90
2018-12-01T13:02:44.554Z,84.50
2018-12-01T13:05:15.423Z,84.00
2018-12-01T13:07:44.299Z,84.40
2018-12-01T13:10:14.877Z,85.10
2018-12-01T13:12:43.315Z,84.90
2018-12-01T13:15:12.790Z,85.10
2018-12-01T13:17:41.314Z,84.70
2018-12-01T13:20:10.942Z,84.60
2018-12-01T13:22:39.341Z,84.70
2018-12-01T13:25:09.494Z,84.60
2018-12-01T13:27:37.992Z,84.70
2018-12-01T13:30:26.353Z,84.50
2018-12-01T13:32:54.812Z,84.60
2018-12-01T13:35:23.270Z,84.60
2018-12-01T13:37:51.702Z,85.20
2018-12-01T13:40:20.132Z,85.50
2018-12-01T13:42:48.594Z,85.70
2018-12-01T13:45:18.367Z,86.10
2018-12-01T13:47:48.325Z,86.00
2018-12-01T13:50:18.753Z,86.20
2018-12-01T13:52:55.237Z,86.60
2018-12-01T13:55:24.476Z,86.60
2018-12-01T13:57:52.894Z,86.70
2018-12-01T14:00:23.979Z,86.80
2018-12-01T14:02:52.404Z,86.90
2018-12-01T14:05:20.833Z,87.00
2018-12-01T14:07:49.378Z,87.00
2018-12-01T14:10:21.946Z,87.30
2018-12-01T14:12:53.124Z,87.30
2018-12-01T14:15:22.808Z,87.00
2018-12-01T14:17:51.227Z,87.00
2018-12-01T14:20:20.167Z,87.20
2018-12-01T14:22:49.333Z,87.30
2018-12-01T14:27:52.178Z,87.60
2018-12-01T14:30:20.602Z,87.70
2018-12-01T14:32:49.051Z,88.00
2018-12-01T14:35:21.927Z,88.20
2018-12-01T14:37:52.974Z,87.70
2018-12-01T14:40:21.550Z,87.40
2018-12-01T14:42:50.102Z,87.70
2018-12-01T14:47:47.974Z,86.70
2018-12-01T14:52:45.395Z,87.60
2018-12-01T14:55:15.817Z,87.60
2018-12-01T14:57:44.369Z,87.70
2018-12-01T15:00:18.948Z,87.70
2018-12-01T15:02:47.838Z,88.10
2018-12-01T15:05:16.271Z,88.00
2018-12-01T15:07:45.128Z,88.30
2018-12-01T15:10:15.659Z,88.50
2018-12-01T15:12:44.191Z,88.60
2018-12-01T15:17:41.320Z,89.00
2018-12-01T15:20:13.742Z,88.90
2018-12-01T15:22:42.531Z,89.00
2018-12-01T15:25:12.157Z,89.40
2018-12-01T15:27:40.566Z,89.60
2018-12-01T15:30:15.613Z,89.80
2018-12-01T15:35:13.974Z,89.70
2018-12-01T15:37:43.162Z,89.60
2018-12-01T15:40:19.151Z,90.00
2018-12-01T15:42:47.915Z,90.20
2018-12-01T15:45:18.369Z,90.10
2018-12-01T15:47:46.842Z,90.10
2018-12-01T15:50:17.768Z,90.30
2018-12-01T15:52:48.858Z,90.50
2018-12-01T15:55:17.571Z,90.60
2018-12-01T15:57:46.010Z,90.60
2018-12-01T16:00:30.966Z,90.50
2018-12-01T16:02:59.378Z,90.30
2018-12-01T16:05:27.850Z,90.70
2018-12-01T16:07:58.363Z,90.60
2018-12-01T16:10:26.939Z,90.50
2018-12-01T16:13:01.510Z,90.50
2018-12-01T16:15:38.818Z,90.50
2018-12-01T16:18:08.083Z,90.30
2018-12-01T16:20:36.550Z,90.40
2018-12-01T16:23:05.054Z,90.50
2018-12-01T16:25:33.559Z,90.50
2018-12-01T16:33:03.240Z,90.60
2018-12-01T16:35:31.673Z,90.70
2018-12-01T16:38:00.182Z,90.90
2018-12-01T16:43:13.717Z,91.00
2018-12-01T16:45:42.813Z,90.70
2018-12-01T16:48:11.370Z,91.10
2018-12-01T16:50:39.807Z,91.70
2018-12-01T16:53:10.003Z,91.10
2018-12-01T16:55:38.750Z,91.20
2018-12-01T16:58:07.224Z,91.20
2018-12-01T17:00:35.692Z,91.10
2018-12-01T17:03:04.144Z,91.10
2018-12-01T17:05:34.204Z,91.10
2018-12-01T17:10:30.774Z,91.20
2018-12-01T17:12:59.220Z,91.00
2018-12-01T17:15:27.658Z,91.10
2018-12-01T17:17:56.104Z,90.90
2018-12-01T17:20:24.491Z,90.70
2018-12-01T17:22:54.482Z,90.70
2018-12-01T17:25:22.919Z,90.50
2018-12-01T17:27:58.799Z,90.60
2018-12-01T17:30:29.324Z,90.60
2018-12-01T17:32:58.736Z,90.60
2018-12-01T17:35:30.389Z,91.00
2018-12-01T17:38:03.282Z,90.80
2018-12-01T17:41:35.407Z,90.90
2018-12-01T17:44:08.543Z,90.70
2018-12-01T17:46:36.950Z,90.50
2018-12-01T17:51:34.127Z,90.80
2018-12-01T17:56:36.826Z,90.70
2018-12-01T17:59:06.151Z,90.70
2018-12-01T18:01:34.560Z,90.70
2018-12-01T18:04:03.049Z,90.80
2018-12-01T18:08:59.715Z,91.00
2018-12-01T18:11:29.596Z,91.00
2018-12-01T18:13:56.587Z,90.90
2018-12-01T18:16:24.977Z,91.10
2018-12-01T18:21:21.634Z,91.20
2018-12-01T18:23:50.055Z,91.30
2018-12-01T18:26:18.447Z,91.90
2018-12-01T18:28:48.919Z,92.20
2018-12-01T18:31:19.659Z,92.00
2018-12-01T18:33:50.861Z,91.80
2018-12-01T18:36:19.257Z,91.60
2018-12-01T18:38:49.373Z,91.50
2018-12-01T18:41:17.872Z,91.60
2018-12-01T18:43:46.506Z,91.50
2018-12-01T18:46:15.727Z,91.60
2018-12-01T18:48:45.125Z,91.50
2018-12-01T18:51:13.626Z,91.50
2018-12-01T18:53:42.026Z,91.60
2018-12-01T18:56:10.473Z,91.50
2018-12-01T18:58:38.886Z,91.50
2018-12-01T19:01:08.621Z,91.50
2018-12-01T19:03:37.424Z,91.50
2018-12-01T19:06:06.570Z,91.30
2018-12-01T19:08:35.001Z,91.30
2018-12-01T19:11:03.408Z,91.40
2018-12-01T19:13:31.822Z,91.30
2018-12-01T19:16:00.223Z,91.40
2018-12-01T19:18:28.635Z,91.20
2018-12-01T19:20:57.036Z,91.00
2018-12-01T19:23:25.453Z,90.90
2018-12-01T19:25:53.866Z,90.90
2018-12-01T19:28:22.250Z,91.10
2018-12-01T19:30:50.654Z,91.10
2018-12-01T19:33:20.507Z,91.10
2018-12-01T19:35:50.146Z,91.00
2018-12-01T19:38:22.095Z,91.00
2018-12-01T19:43:18.638Z,91.00
2018-12-01T19:48:15.151Z,90.80
2018-12-01T19:55:42.074Z,90.70
2018-12-01T19:58:13.118Z,90.80
2018-12-01T20:00:42.915Z,90.90
2018-12-01T20:03:13.614Z,90.90
2018-12-01T20:05:42.033Z,91.00
2018-12-01T20:08:10.495Z,91.00
2018-12-01T20:10:43.172Z,91.10
2018-12-01T20:15:47.820Z,91.20
2018-12-01T20:18:24.735Z,91.00
2018-12-01T20:20:53.227Z,90.90
2018-12-01T20:23:21.652Z,90.90
2018-12-01T20:25:50.988Z,90.90
2018-12-01T20:28:19.459Z,91.00
2018-12-01T20:30:48.634Z,91.00
2018-12-01T20:33:17.466Z,91.00
2018-12-01T20:36:19.972Z,91.10
2018-12-01T20:41:31.727Z,91.10
2018-12-01T20:46:28.250Z,91.00
2018-12-01T20:48:56.649Z,90.80
2018-12-01T20:51:25.066Z,90.90
2018-12-01T20:53:53.470Z,91.00
2018-12-01T20:56:23.767Z,90.90
2018-12-01T20:58:52.147Z,90.70
2018-12-01T21:01:20.546Z,90.80
2018-12-01T21:03:49.024Z,90.70
2018-12-01T21:06:17.443Z,90.80
2018-12-01T21:08:45.871Z,90.80
2018-12-01T21:11:15.218Z,91.00
2018-12-01T21:16:11.743Z,91.10
2018-12-01T21:21:08.247Z,90.90
2018-12-01T21:23:36.670Z,90.80
2018-12-01T21:26:05.268Z,90.70
2018-12-01T21:31:01.779Z,90.90
2018-12-01T21:33:32.624Z,90.80
2018-12-01T21:36:01.051Z,90.90
2018-12-01T21:38:29.464Z,91.10
2018-12-01T21:40:57.857Z,91.10
2018-12-01T21:43:26.300Z,91.20
2018-12-01T21:45:54.712Z,91.30
2018-12-01T21:50:51.270Z,91.00
2018-12-01T21:53:24.455Z,91.30
2018-12-01T21:55:52.950Z,91.20
2018-12-01T22:03:20.093Z,91.20
2018-12-01T22:05:53.222Z,91.30
2018-12-01T22:08:21.661Z,91.20
2018-12-01T22:10:53.644Z,91.20
2018-12-01T22:13:22.238Z,91.30
2018-12-01T22:15:50.655Z,91.20
2018-12-01T22:18:19.350Z,91.30
2018-12-01T22:20:47.742Z,91.20
2018-12-01T22:23:16.254Z,91.10
2018-12-01T22:25:44.676Z,91.00
2018-12-01T22:28:14.092Z,91.10
2018-12-01T22:30:44.074Z,91.50
2018-12-01T22:33:14.941Z,91.80
2018-12-01T22:35:45.267Z,92.00
2018-12-01T22:40:42.640Z,92.10
2018-12-01T22:43:11.107Z,92.10
2018-12-01T22:45:39.526Z,92.20
2018-12-01T22:48:14.379Z,92.50
2018-12-01T22:53:11.730Z,92.80
2018-12-01T22:55:41.172Z,92.90
2018-12-01T22:58:11.638Z,92.80
2018-12-01T23:00:45.739Z,92.60
2018-12-01T23:05:42.302Z,92.40
2018-12-01T23:08:12.458Z,92.40
2018-12-01T23:10:40.916Z,92.40
2018-12-01T23:13:09.754Z,92.70
2018-12-01T23:15:38.662Z,93.00
2018-12-01T23:20:38.012Z,92.80
2018-12-01T23:23:06.849Z,93.20
2018-12-01T23:25:35.318Z,92.90
2018-12-01T23:28:03.800Z,92.80
2018-12-01T23:30:32.540Z,92.80
2018-12-01T23:33:07.494Z,93.00
2018-12-01T23:38:04.018Z,93.20
2018-12-01T23:43:00.539Z,93.00
2018-12-01T23:45:29.013Z,92.70
2018-12-01T23:47:57.436Z,92.80
2018-12-01T23:52:56.883Z,93.00
2018-12-01T23:55:25.502Z,93.10
2018-12-01T23:57:54.098Z,92.90
